Greenbush, Kansas
Current Conditions -  °F | °C
As of 8:15 PM on Monday 22 Dec 2014 (Local Time) from KPTS Reporting Station
Clear Clear  
Wind Chill: 38°   Ceiling: Unl
Heat Index: 41°   Visibility: 10mi
Dew Point: 41°   Wind: 6mph
Humidity: 99%   Direction: 220°SW
Pressure: 29.61"   Gusts: NA
Location:  37.5057°N, 94.9338°W
Report Text: KPTS 230215Z AUTO 22005KT 10SM CLR 05/05 A2961 RMK AO2 T00520051
Loading
Personal Weather Stations






























Interactive Weather Map New forecast layout! Learn more

10-Day Weather Forecast

Advertisements
Track Severe Weather on mobile